Time;durP1;ratioP1;P1;durP2;ratioP2;P2;SDS_P1;SDS_P2;PMS_P1;PMS_P2;Temp;Humidity;BMP_temperature;BMP_pressure;BME280_temperature;BME280_humidity;BME280_pressure;Samples;Min_cycle;Max_cycle;Signal;HPM_P1;HPM_P2
2023/03/05 00:01:21;;;;;;;1.93;1.83;;;4.30;91.10;;;;;;5002602;28;20032;-78
2023/03/05 00:03:47;;;;;;;4.15;3.03;;;4.20;91.10;;;;;;4978336;28;20681;-79
2023/03/05 00:06:13;;;;;;;0.73;0.73;;;4.30;91.00;;;;;;5003662;28;20022;-78
2023/03/05 00:08:39;;;;;;;1.13;1.08;;;4.30;90.90;;;;;;5006501;28;20138;-78
2023/03/05 00:11:08;;;;;;;4.30;2.33;;;4.20;91.20;;;;;;5010665;28;20073;-77
2023/03/05 00:13:35;;;;;;;1.55;1.42;;;4.10;91.40;;;;;;5007244;28;20440;-77
2023/03/05 00:16:06;;;;;;;1.92;1.83;;;4.10;91.70;;;;;;4986027;28;20037;-77
2023/03/05 00:18:32;;;;;;;2.63;2.42;;;4.10;91.40;;;;;;5008242;28;20405;-77
2023/03/05 00:20:58;;;;;;;2.67;2.00;;;4.10;91.50;;;;;;5004298;28;20215;-77
2023/03/05 00:23:24;;;;;;;14.48;1.83;;;4.00;91.50;;;;;;5001899;28;20064;-78
2023/03/05 00:25:50;;;;;;;2.25;1.50;;;4.00;91.60;;;;;;4999051;28;20608;-77
2023/03/05 00:28:15;;;;;;;2.90;2.67;;;4.00;91.70;;;;;;5003447;28;20034;-77
2023/03/05 00:30:41;;;;;;;6.72;1.95;;;3.90;91.80;;;;;;5003162;28;20068;-77
2023/03/05 00:33:07;;;;;;;0.93;0.93;;;3.90;91.80;;;;;;5002747;28;20670;-77
2023/03/05 00:35:45;;;;;;;1.15;1.15;;;3.90;91.80;;;;;;5009001;28;20079;-77
2023/03/05 00:38:11;;;;;;;1.30;1.23;;;3.80;92.00;;;;;;5004275;28;20103;-77
2023/03/05 00:40:39;;;;;;;0.70;0.70;;;3.90;92.00;;;;;;5000738;28;20173;-78
2023/03/05 00:43:05;;;;;;;2.03;1.67;;;3.80;92.00;;;;;;4999245;28;20077;-77
2023/03/05 00:45:31;;;;;;;2.28;2.05;;;3.70;92.20;;;;;;5002444;28;20077;-78
2023/03/05 00:47:57;;;;;;;1.52;1.42;;;3.80;92.30;;;;;;5000395;28;20029;-77
2023/03/05 00:50:23;;;;;;;2.08;1.40;;;3.70;92.40;;;;;;5001731;28;20034;-77
2023/03/05 00:52:48;;;;;;;1.10;1.10;;;3.70;92.40;;;;;;5002675;28;20040;-77
2023/03/05 00:55:14;;;;;;;1.48;1.33;;;3.70;92.50;;;;;;5002696;28;20022;-77
2023/03/05 00:57:40;;;;;;;1.08;0.85;;;3.60;92.60;;;;;;5001117;28;20529;-78
2023/03/05 01:00:06;;;;;;;1.75;1.65;;;3.60;92.80;;;;;;5002374;28;20525;-78
2023/03/05 01:02:32;;;;;;;4.68;4.22;;;3.50;92.70;;;;;;5002150;28;20102;-78
2023/03/05 01:04:58;;;;;;;3.33;3.03;;;3.60;92.90;;;;;;5000830;28;20544;-78
2023/03/05 01:07:23;;;;;;;3.15;1.80;;;3.50;92.90;;;;;;4977230;28;20153;-78
2023/03/05 01:09:49;;;;;;;3.45;1.90;;;3.50;93.10;;;;;;5001540;28;20025;-78
2023/03/05 01:12:15;;;;;;;2.20;1.83;;;3.40;93.20;;;;;;4988425;28;20088;-78
2023/03/05 01:14:40;;;;;;;3.70;3.33;;;3.40;93.20;;;;;;5001018;28;20100;-78
2023/03/05 01:17:06;;;;;;;0.90;0.90;;;3.30;93.30;;;;;;5000398;28;20057;-78
2023/03/05 01:19:32;;;;;;;3.58;3.25;;;3.40;93.50;;;;;;4993811;28;20042;-78
2023/03/05 01:21:58;;;;;;;0.60;0.60;;;3.40;93.50;;;;;;5000200;28;20486;-78
2023/03/05 01:24:24;;;;;;;1.70;1.65;;;3.30;93.50;;;;;;4989207;28;20469;-78
2023/03/05 01:26:49;;;;;;;1.35;1.23;;;3.30;93.70;;;;;;4964420;28;20441;-78
2023/03/05 01:29:15;;;;;;;2.33;2.05;;;3.40;93.60;;;;;;5001323;28;20096;-77
2023/03/05 01:31:41;;;;;;;2.47;2.38;;;3.10;94.00;;;;;;4994999;28;20057;-77
2023/03/05 01:34:07;;;;;;;1.75;1.30;;;3.10;94.20;;;;;;5001851;28;20072;-77
2023/03/05 01:36:32;;;;;;;0.68;0.68;;;3.10;94.40;;;;;;5001346;28;20100;-77
2023/03/05 01:38:58;;;;;;;1.85;1.42;;;3.10;94.20;;;;;;4991151;28;20124;-78
2023/03/05 01:41:24;;;;;;;1.75;1.52;;;3.10;94.20;;;;;;4997285;28;20034;-78
2023/03/05 01:43:51;;;;;;;1.65;1.55;;;3.10;94.30;;;;;;4993704;28;20053;-77
2023/03/05 01:46:38;;;;;;;3.03;2.75;;;2.90;94.80;;;;;;4999965;28;20036;-77
2023/03/05 01:49:13;;;;;;;;;;;2.90;94.70;;;;;;4984385;28;20123;-77
2023/03/05 01:52:07;;;;;;;5.80;3.28;;;3.10;94.40;;;;;;5001229;28;19927;-77
2023/03/05 01:54:58;;;;;;;1.88;1.75;;;2.90;94.60;;;;;;4976709;28;20030;-77
2023/03/05 01:57:29;;;;;;;4.97;3.03;;;2.90;94.80;;;;;;4997846;28;20033;-77
2023/03/05 02:00:00;;;;;;;1.92;1.83;;;2.80;95.00;;;;;;5000610;28;20061;-78
2023/03/05 02:02:26;;;;;;;1.77;1.67;;;2.80;95.10;;;;;;4999423;28;20034;-77
2023/03/05 02:05:01;;;;;;;2.70;2.38;;;2.80;95.20;;;;;;5000305;28;20037;-77
2023/03/05 02:07:28;;;;;;;3.30;2.25;;;2.60;95.40;;;;;;4998345;28;20026;-78
2023/03/05 02:09:53;;;;;;;;;;;2.70;95.50;;;;;;5002387;28;20018;-77
2023/03/05 02:12:19;;;;;;;0.63;0.60;;;2.60;95.50;;;;;;4998034;28;19920;-78
2023/03/05 02:14:49;;;;;;;8.48;2.10;;;2.50;95.60;;;;;;5001323;28;20156;-77
2023/03/05 02:17:15;;;;;;;3.63;1.95;;;2.60;95.70;;;;;;5005365;28;20030;-77
2023/03/05 02:19:56;;;;;;;0.50;0.50;;;2.50;95.80;;;;;;5004701;28;20035;-79
2023/03/05 02:22:23;;;;;;;2.42;2.10;;;2.50;95.70;;;;;;5006681;28;20065;-79
2023/03/05 02:24:49;;;;;;;;;;;2.40;96.00;;;;;;4987481;28;20062;-78
2023/03/05 02:27:15;;;;;;;4.53;4.13;;;2.30;96.00;;;;;;5006507;28;20044;-78
2023/03/05 02:29:43;;;;;;;3.15;1.50;;;2.40;96.10;;;;;;5007589;28;20088;-78
2023/03/05 02:32:09;;;;;;;2.15;1.17;;;2.30;96.30;;;;;;4999349;28;20148;-78
2023/03/05 02:34:36;;;;;;;2.13;1.83;;;2.30;96.30;;;;;;4990551;28;20125;-78
2023/03/05 02:37:03;;;;;;;2.67;1.90;;;2.30;96.30;;;;;;5000477;28;20037;-78
2023/03/05 02:39:32;;;;;;;7.32;3.60;;;2.10;96.60;;;;;;4993801;28;20135;-77
2023/03/05 02:41:58;;;;;;;19.38;4.80;;;2.10;96.80;;;;;;5009584;28;20205;-77
2023/03/05 02:44:23;;;;;;;3.78;2.97;;;2.10;96.90;;;;;;5007117;28;20050;-77
2023/03/05 02:46:49;;;;;;;0.73;0.73;;;2.20;96.80;;;;;;5004073;28;20031;-78
2023/03/05 02:49:15;;;;;;;10.32;2.05;;;2.10;96.60;;;;;;5004129;28;20113;-78
2023/03/05 02:51:40;;;;;;;2.20;2.05;;;2.10;96.70;;;;;;5001229;28;20022;-79
2023/03/05 02:54:06;;;;;;;1.17;1.17;;;2.20;96.70;;;;;;5006017;28;20026;-78
2023/03/05 02:56:32;;;;;;;5.80;2.53;;;2.10;96.70;;;;;;5006472;28;20096;-79
2023/03/05 02:58:58;;;;;;;3.28;2.78;;;2.00;96.90;;;;;;5004801;28;20053;-79
2023/03/05 03:01:26;;;;;;;2.42;1.60;;;2.10;97.00;;;;;;5006359;28;20469;-79
2023/03/05 03:03:52;;;;;;;5.10;3.55;;;2.00;96.90;;;;;;4988435;28;20046;-79
2023/03/05 03:06:18;;;;;;;3.15;2.85;;;1.90;96.90;;;;;;5007089;28;20076;-78
2023/03/05 03:08:44;;;;;;;6.80;3.25;;;1.90;97.10;;;;;;5006309;28;20034;-78
2023/03/05 03:11:13;;;;;;;2.10;1.13;;;1.80;97.20;;;;;;5005390;28;20124;-78
2023/03/05 03:13:39;;;;;;;1.05;0.98;;;1.80;97.30;;;;;;5004855;28;20026;-78
2023/03/05 03:16:08;;;;;;;2.53;2.43;;;1.80;97.40;;;;;;5006259;28;20030;-78
2023/03/05 03:18:33;;;;;;;3.00;0.98;;;1.80;97.40;;;;;;5004585;28;20851;-78
2023/03/05 03:21:00;;;;;;;2.05;1.95;;;1.70;97.60;;;;;;5006454;28;20119;-80
2023/03/05 03:23:26;;;;;;;3.43;2.30;;;1.80;97.70;;;;;;5000838;28;20056;-79
2023/03/05 03:25:51;;;;;;;5.43;3.80;;;1.60;97.70;;;;;;4999631;28;20342;-79
2023/03/05 03:28:17;;;;;;;1.17;1.17;;;1.50;97.90;;;;;;5000268;28;20038;-79
2023/03/05 03:30:43;;;;;;;7.43;1.60;;;1.60;98.00;;;;;;5003318;28;20026;-78
2023/03/05 03:33:09;;;;;;;1.50;1.40;;;1.60;98.00;;;;;;4999936;28;20034;-79
2023/03/05 03:35:34;;;;;;;3.22;2.08;;;1.60;98.10;;;;;;4986237;28;20033;-79
2023/03/05 03:38:00;;;;;;;6.50;3.90;;;1.40;98.20;;;;;;4999254;28;20041;-79
2023/03/05 03:40:26;;;;;;;1.20;1.20;;;1.50;98.30;;;;;;4999491;28;20034;-79
2023/03/05 03:42:52;;;;;;;3.20;2.30;;;1.40;98.60;;;;;;4999034;28;20053;-79
2023/03/05 03:45:17;;;;;;;2.17;1.30;;;1.40;98.60;;;;;;5000690;28;20085;-78
2023/03/05 03:47:43;;;;;;;5.53;2.03;;;1.40;98.70;;;;;;4990280;28;20108;-78
2023/03/05 03:50:09;;;;;;;1.63;1.52;;;1.30;99.00;;;;;;4997886;28;20034;-78
2023/03/05 03:52:35;;;;;;;2.03;1.92;;;1.30;99.10;;;;;;5002950;28;20087;-78
2023/03/05 03:55:01;;;;;;;2.00;1.00;;;1.20;99.20;;;;;;4999078;28;20034;-78
2023/03/05 03:57:28;;;;;;;0.70;0.70;;;1.20;99.30;;;;;;4976525;28;20029;-78
2023/03/05 03:59:54;;;;;;;10.73;2.33;;;1.10;99.40;;;;;;5003592;28;20038;-78
2023/03/05 04:02:20;;;;;;;1.90;1.80;;;1.10;99.50;;;;;;5003353;28;20026;-78
2023/03/05 04:04:45;;;;;;;2.55;1.83;;;1.10;99.60;;;;;;5003697;28;20109;-77
2023/03/05 04:07:11;;;;;;;1.92;1.83;;;1.10;99.70;;;;;;5003854;28;20481;-77
2023/03/05 04:09:37;;;;;;;0.82;0.82;;;1.10;99.60;;;;;;5002589;28;20072;-77
2023/03/05 04:12:03;;;;;;;4.30;2.30;;;1.20;99.70;;;;;;5003462;28;20049;-76
2023/03/05 04:14:29;;;;;;;5.63;2.20;;;1.10;99.80;;;;;;5003041;28;20472;-78
2023/03/05 04:16:54;;;;;;;4.65;2.50;;;1.00;99.90;;;;;;4983020;28;20030;-77
2023/03/05 04:19:20;;;;;;;1.63;1.38;;;1.00;99.90;;;;;;5001987;28;20042;-76
2023/03/05 04:21:46;;;;;;;2.47;2.28;;;1.10;99.90;;;;;;5000157;28;20100;-78
2023/03/05 04:24:12;;;;;;;1.10;1.10;;;0.90;99.90;;;;;;5003116;28;20128;-78
2023/03/05 04:26:37;;;;;;;1.75;1.67;;;0.90;99.90;;;;;;5001929;28;20048;-78
2023/03/05 04:29:03;;;;;;;3.83;1.75;;;0.90;99.90;;;;;;5001934;28;20095;-78
2023/03/05 04:31:29;;;;;;;1.88;1.77;;;0.80;99.90;;;;;;5000872;28;20636;-79
2023/03/05 04:33:54;;;;;;;2.50;2.33;;;0.80;99.90;;;;;;5001828;28;20108;-79
2023/03/05 04:36:20;;;;;;;3.60;2.85;;;0.70;99.90;;;;;;5000165;28;20053;-79
2023/03/05 04:38:46;;;;;;;2.55;2.03;;;0.80;99.90;;;;;;4999689;28;20091;-79
2023/03/05 04:41:12;;;;;;;1.08;1.08;;;0.70;99.90;;;;;;5000617;28;20124;-79
2023/03/05 04:43:37;;;;;;;1.65;0.73;;;0.70;99.90;;;;;;4975362;28;20393;-79
2023/03/05 04:46:03;;;;;;;2.05;1.70;;;0.70;99.90;;;;;;4987984;28;20290;-79
2023/03/05 04:48:29;;;;;;;0.98;0.98;;;0.60;99.90;;;;;;4985087;28;20592;-79
2023/03/05 04:50:56;;;;;;;1.67;1.58;;;0.50;99.90;;;;;;5000590;28;20099;-80
2023/03/05 04:53:22;;;;;;;1.20;1.10;;;0.50;99.90;;;;;;4997712;28;20092;-79
2023/03/05 04:55:55;;;;;;;5.95;3.10;;;0.60;99.90;;;;;;4988345;28;20063;-79
2023/03/05 04:58:21;;;;;;;2.30;1.58;;;0.60;99.90;;;;;;4999458;28;20819;-79
2023/03/05 05:00:47;;;;;;;1.92;1.77;;;0.50;99.90;;;;;;4987342;28;20776;-79
2023/03/05 05:03:13;;;;;;;11.07;5.25;;;0.40;99.90;;;;;;4992275;28;20037;-79
2023/03/05 05:05:38;;;;;;;2.83;2.08;;;0.50;99.90;;;;;;4998969;28;20560;-79
2023/03/05 05:08:04;;;;;;;2.83;2.28;;;0.40;99.90;;;;;;4982744;28;20037;-79
2023/03/05 05:10:30;;;;;;;2.47;1.75;;;0.40;99.90;;;;;;5000025;28;20470;-80
2023/03/05 05:12:56;;;;;;;2.05;1.95;;;0.30;99.90;;;;;;4987779;28;20026;-79
2023/03/05 05:15:22;;;;;;;13.15;5.20;;;0.40;99.90;;;;;;4995010;28;20034;-79
2023/03/05 05:17:47;;;;;;;2.08;1.88;;;0.40;99.90;;;;;;4989630;28;20034;-80
2023/03/05 05:20:15;;;;;;;1.17;1.10;;;0.30;99.90;;;;;;4987484;28;20049;-79
2023/03/05 05:22:40;;;;;;;4.30;2.17;;;0.20;99.90;;;;;;5000893;28;20030;-79
2023/03/05 05:25:06;;;;;;;3.38;2.75;;;0.20;99.90;;;;;;4985466;28;20030;-77
2023/03/05 05:27:32;;;;;;;2.43;1.90;;;0.20;99.90;;;;;;4993044;28;20026;-78
2023/03/05 05:29:58;;;;;;;3.05;1.33;;;0.20;99.90;;;;;;4992784;28;21019;-77
2023/03/05 05:32:24;;;;;;;6.93;1.90;;;0.20;99.90;;;;;;4994830;28;20033;-76
2023/03/05 05:34:57;;;;;;;1.25;1.23;;;0.20;99.90;;;;;;4993679;28;20072;-77
2023/03/05 05:37:23;;;;;;;6.20;1.40;;;0.20;99.90;;;;;;4996130;28;20022;-78
2023/03/05 05:39:49;;;;;;;0.93;0.93;;;0.20;99.90;;;;;;4994796;28;20042;-78
2023/03/05 05:42:19;;;;;;;1.00;0.90;;;0.20;99.90;;;;;;4995611;28;20425;-79
2023/03/05 05:44:46;;;;;;;4.63;2.95;;;0.20;99.90;;;;;;4972160;28;20054;-78
2023/03/05 05:47:13;;;;;;;1.13;1.13;;;0.20;99.90;;;;;;4995228;28;20057;-77
2023/03/05 05:49:39;;;;;;;3.20;1.95;;;0.10;99.90;;;;;;5001165;28;20065;-78
2023/03/05 05:52:05;;;;;;;2.35;2.22;;;0.10;99.90;;;;;;4993238;28;20125;-78
2023/03/05 05:54:31;;;;;;;2.37;2.17;;;0.00;99.90;;;;;;4998884;28;20440;-79
2023/03/05 05:56:56;;;;;;;1.48;1.38;;;0.10;99.90;;;;;;4993030;28;20364;-78
2023/03/05 05:59:22;;;;;;;9.05;1.48;;;-0.10;99.90;;;;;;4984241;28;20822;-78
2023/03/05 06:01:48;;;;;;;1.88;1.77;;;0.00;99.90;;;;;;5002180;28;20038;-79
2023/03/05 06:04:13;;;;;;;1.73;1.65;;;0.00;99.90;;;;;;5003192;28;20105;-78
2023/03/05 06:06:39;;;;;;;2.58;2.38;;;-0.10;99.90;;;;;;5011321;28;20034;-78
2023/03/05 06:09:05;;;;;;;0.40;0.40;;;-0.10;99.90;;;;;;4990533;28;20713;-78
2023/03/05 06:11:31;;;;;;;2.33;1.90;;;-0.10;99.90;;;;;;5004997;28;20073;-78
2023/03/05 06:13:57;;;;;;;0.98;0.93;;;-0.20;99.90;;;;;;5007622;28;20548;-78
2023/03/05 06:16:24;;;;;;;1.83;1.73;;;-0.10;99.90;;;;;;5004693;28;20433;-77
2023/03/05 06:18:51;;;;;;;3.35;2.10;;;-0.20;99.90;;;;;;4998897;28;20034;-78
2023/03/05 06:21:18;;;;;;;0.77;0.77;;;-0.20;99.90;;;;;;4999573;28;20115;-78
2023/03/05 06:23:45;;;;;;;0.70;0.70;;;-0.10;99.90;;;;;;5007536;28;20770;-79
2023/03/05 06:26:13;;;;;;;0.70;0.70;;;-0.20;99.90;;;;;;5004203;28;20382;-77
2023/03/05 06:28:39;;;;;;;1.65;1.55;;;-0.20;99.90;;;;;;5003749;28;20052;-78
2023/03/05 06:31:11;;;;;;;1.10;1.10;;;-0.10;99.90;;;;;;5000542;28;20037;-77
2023/03/05 06:33:37;;;;;;;1.42;1.35;;;-0.20;99.90;;;;;;5006215;28;20022;-77
2023/03/05 06:36:08;;;;;;;2.67;2.20;;;-0.20;99.90;;;;;;4996703;28;20045;-78
2023/03/05 06:38:35;;;;;;;1.27;1.27;;;0.00;99.90;;;;;;4996220;28;20056;-78
2023/03/05 06:41:04;;;;;;;1.80;1.70;;;0.10;99.90;;;;;;5003438;28;20057;-79
2023/03/05 06:43:32;;;;;;;4.18;3.75;;;0.40;99.90;;;;;;5003302;28;20029;-79
2023/03/05 06:46:08;;;;;;;3.78;2.80;;;0.60;99.90;;;;;;4999099;28;20111;-82
2023/03/05 06:48:33;;;;;;;2.40;2.20;;;0.80;99.90;;;;;;5005727;28;20041;-83
2023/03/05 06:50:59;;;;;;;2.22;2.08;;;1.00;99.90;;;;;;4994824;28;20037;-81
2023/03/05 06:53:25;;;;;;;2.17;1.00;;;1.20;99.90;;;;;;4996951;28;20030;-81
2023/03/05 06:55:52;;;;;;;1.73;1.63;;;1.40;99.50;;;;;;5002677;28;20155;-80
2023/03/05 06:58:18;;;;;;;2.28;2.17;;;1.60;98.60;;;;;;5002093;28;20030;-82
2023/03/05 07:00:44;;;;;;;1.80;1.65;;;1.80;98.20;;;;;;4998401;28;20038;-81
2023/03/05 07:03:10;;;;;;;1.38;1.05;;;1.90;97.40;;;;;;5009888;28;20040;-81
2023/03/05 07:05:40;;;;;;;6.05;2.45;;;1.90;97.20;;;;;;5000469;28;20030;-81
2023/03/05 07:08:06;;;;;;;2.38;1.90;;;2.10;96.90;;;;;;4999264;28;20058;-81
2023/03/05 07:10:36;;;;;;;1.83;1.73;;;2.20;96.30;;;;;;4998765;28;20081;-81
2023/03/05 07:13:02;;;;;;;1.33;1.25;;;2.50;95.70;;;;;;5003244;28;20026;-80
2023/03/05 07:15:27;;;;;;;2.85;2.60;;;2.80;95.10;;;;;;5000176;28;20026;-80
2023/03/05 07:17:53;;;;;;;2.20;2.00;;;2.90;94.80;;;;;;5008791;28;20046;-81
2023/03/05 07:20:18;;;;;;;7.47;3.80;;;3.20;94.50;;;;;;4980706;28;20826;-80
2023/03/05 07:22:44;;;;;;;2.25;2.10;;;3.20;94.20;;;;;;5015423;28;20037;-81
2023/03/05 07:25:10;;;;;;;2.03;1.92;;;3.50;93.60;;;;;;5016953;28;20101;-81
2023/03/05 07:27:37;;;;;;;2.00;1.88;;;3.70;93.00;;;;;;5016980;28;20037;-80
2023/03/05 07:30:02;;;;;;;;;;;4.10;92.60;;;;;;4994599;28;20030;-80
2023/03/05 07:32:28;;;;;;;3.73;3.53;;;4.10;92.10;;;;;;5013750;28;19917;-79
2023/03/05 07:34:54;;;;;;;3.92;2.65;;;4.50;91.80;;;;;;5005451;28;20037;-78
2023/03/05 07:37:19;;;;;;;7.68;1.85;;;4.60;91.00;;;;;;4999851;28;20473;-77
2023/03/05 07:39:45;;;;;;;0.45;0.45;;;4.70;91.10;;;;;;5012991;28;20520;-76
2023/03/05 07:42:11;;;;;;;1.25;1.25;;;5.00;90.60;;;;;;4979066;28;20030;-77
2023/03/05 07:44:37;;;;;;;0.82;0.82;;;5.30;89.40;;;;;;4991360;28;20058;-77
2023/03/05 07:47:04;;;;;;;1.55;1.05;;;5.60;89.70;;;;;;4996620;28;20101;-77
2023/03/05 07:49:29;;;;;;;3.17;2.97;;;5.70;88.60;;;;;;4984034;28;20484;-77
2023/03/05 07:51:55;;;;;;;7.15;2.90;;;5.70;87.50;;;;;;4989887;28;20034;-77
2023/03/05 07:54:21;;;;;;;4.70;4.30;;;5.80;88.40;;;;;;4994337;28;20022;-77
2023/03/05 07:56:47;;;;;;;1.73;1.63;;;6.00;87.20;;;;;;5003315;28;20469;-78
2023/03/05 07:59:13;;;;;;;4.07;2.53;;;6.00;87.20;;;;;;4997700;28;20034;-76
2023/03/05 08:01:39;;;;;;;1.58;1.23;;;6.00;87.90;;;;;;4996296;28;20046;-78
2023/03/05 08:04:06;;;;;;;3.30;2.80;;;6.30;86.40;;;;;;4988145;28;20022;-80
2023/03/05 08:06:32;;;;;;;4.65;2.22;;;6.50;85.40;;;;;;4997202;28;20037;-79
2023/03/05 08:08:58;;;;;;;3.30;1.17;;;6.50;85.40;;;;;;5002931;28;20030;-78
2023/03/05 08:11:24;;;;;;;3.20;2.57;;;6.70;85.50;;;;;;4998297;28;20029;-78
2023/03/05 08:13:50;;;;;;;4.85;3.03;;;6.90;83.30;;;;;;5001737;28;20030;-77
2023/03/05 08:16:18;;;;;;;3.38;3.10;;;7.30;82.90;;;;;;4996264;28;20382;-78
2023/03/05 08:18:45;;;;;;;2.75;2.60;;;7.30;81.40;;;;;;5000266;28;20038;-79
2023/03/05 08:21:19;;;;;;;1.27;1.27;;;7.50;81.10;;;;;;4992897;28;20633;-78
2023/03/05 08:23:46;;;;;;;2.35;2.15;;;7.60;82.60;;;;;;4984815;28;20681;-78
2023/03/05 08:26:17;;;;;;;2.50;2.33;;;7.80;81.00;;;;;;4992953;28;20034;-78
2023/03/05 08:28:43;;;;;;;1.83;1.67;;;8.00;79.10;;;;;;4997133;28;20116;-78
2023/03/05 08:31:13;;;;;;;13.55;4.18;;;8.00;78.50;;;;;;4997107;28;20817;-78
2023/03/05 08:33:39;;;;;;;0.88;0.85;;;8.00;78.20;;;;;;4980205;28;20033;-79
2023/03/05 08:36:06;;;;;;;1.25;1.15;;;8.40;77.70;;;;;;4994898;28;20073;-78
2023/03/05 08:38:31;;;;;;;1.25;0.88;;;8.40;76.40;;;;;;4993253;28;20123;-79
2023/03/05 08:40:57;;;;;;;8.50;2.72;;;8.80;75.80;;;;;;4992519;28;20034;-79
2023/03/05 08:43:23;;;;;;;2.45;1.80;;;8.60;75.60;;;;;;4996607;28;20040;-79
2023/03/05 08:45:50;;;;;;;1.17;1.13;;;9.10;75.70;;;;;;4996335;28;21166;-79
2023/03/05 08:48:16;;;;;;;4.72;3.38;;;9.00;75.20;;;;;;4995494;28;20041;-80
2023/03/05 08:50:41;;;;;;;2.72;2.45;;;9.40;75.80;;;;;;4996996;28;20018;-80
2023/03/05 08:53:07;;;;;;;0.50;0.50;;;9.30;73.20;;;;;;4996205;28;20839;-78
2023/03/05 08:55:33;;;;;;;3.53;2.87;;;9.30;74.00;;;;;;5000430;28;20699;-78
2023/03/05 08:57:59;;;;;;;2.50;2.33;;;9.30;72.80;;;;;;4996491;28;20468;-78
2023/03/05 09:00:25;;;;;;;2.13;1.95;;;9.90;71.40;;;;;;4992503;28;20085;-79
2023/03/05 09:02:50;;;;;;;1.00;1.00;;;9.90;71.80;;;;;;4994117;28;20029;-78
2023/03/05 09:05:17;;;;;;;1.45;1.35;;;9.50;69.50;;;;;;4995183;28;20037;-78
2023/03/05 09:07:43;;;;;;;0.32;0.32;;;9.90;71.20;;;;;;4990815;28;20030;-78
2023/03/05 09:10:12;;;;;;;1.25;1.25;;;10.40;70.20;;;;;;4998313;28;20108;-78
2023/03/05 09:12:38;;;;;;;0.85;0.85;;;10.10;68.60;;;;;;4998355;28;20033;-78
2023/03/05 09:15:08;;;;;;;4.88;1.80;;;10.00;70.40;;;;;;4993641;28;20034;-78
2023/03/05 09:17:40;;;;;;;1.02;0.95;;;10.50;69.40;;;;;;4995378;28;20092;-78
2023/03/05 09:20:07;;;;;;;1.25;1.25;;;10.40;68.10;;;;;;4998433;28;20120;-79
2023/03/05 09:22:32;;;;;;;1.05;1.05;;;11.10;69.40;;;;;;4998406;28;20604;-78
2023/03/05 09:24:58;;;;;;;1.65;1.33;;;11.50;67.00;;;;;;4995458;28;20034;-78
2023/03/05 09:27:24;;;;;;;2.47;2.28;;;10.90;66.40;;;;;;4997802;28;20045;-76
2023/03/05 09:29:51;;;;;;;1.40;1.30;;;10.90;66.90;;;;;;5001169;28;20029;-77
2023/03/05 09:32:16;;;;;;;;;;;11.80;68.00;;;;;;4985642;28;20064;-78
2023/03/05 09:34:42;;;;;;;1.60;1.50;;;12.10;67.20;;;;;;5003407;28;20044;-78
2023/03/05 09:37:08;;;;;;;1.95;1.85;;;11.30;65.20;;;;;;5012816;28;20099;-77
2023/03/05 09:39:33;;;;;;;2.70;2.58;;;11.30;65.40;;;;;;5011303;28;20036;-78
2023/03/05 09:42:33;;;;;;;1.45;1.40;;;10.80;66.40;;;;;;5004286;28;20047;-78
2023/03/05 09:45:36;;;;;;;2.83;2.08;;;11.10;67.20;;;;;;4998715;28;20050;-78
2023/03/05 09:48:20;;;;;;;1.38;1.27;;;12.50;66.20;;;;;;5004301;28;20057;-78
2023/03/05 09:51:01;;;;;;;0.77;0.77;;;13.40;63.80;;;;;;4999213;28;20030;-78
2023/03/05 09:53:27;;;;;;;2.00;1.40;;;12.40;63.60;;;;;;5000209;28;20613;-78
2023/03/05 09:55:58;;;;;;;0.75;0.75;;;11.50;64.30;;;;;;5002062;28;20078;-77
2023/03/05 09:58:41;;;;;;;3.03;2.83;;;10.60;66.00;;;;;;4999515;28;20036;-78
2023/03/05 10:01:19;;;;;;;0.93;0.93;;;11.40;71.00;;;;;;4995409;28;20064;-77
2023/03/05 10:04:04;;;;;;;2.30;2.10;;;10.60;70.00;;;;;;4981537;28;20045;-78
2023/03/05 10:06:56;;;;;;;2.33;1.48;;;11.00;69.80;;;;;;4996239;28;20678;-77
2023/03/05 10:10:01;;;;;;;0.77;0.65;;;10.10;67.70;;;;;;4977951;28;20056;-78
2023/03/05 10:12:41;;;;;;;4.07;3.00;;;10.10;69.80;;;;;;4998899;28;20041;-77
2023/03/05 10:15:34;;;;;;;1.48;1.38;;;10.40;70.20;;;;;;5000015;28;20022;-77
2023/03/05 10:18:33;;;;;;;2.03;1.90;;;10.40;73.30;;;;;;4995684;28;20079;-77
2023/03/05 10:21:07;;;;;;;1.83;1.73;;;10.70;73.30;;;;;;5000217;28;20565;-77
2023/03/05 10:23:39;;;;;;;1.50;1.20;;;11.20;72.00;;;;;;4996587;28;20030;-78
2023/03/05 10:26:04;;;;;;;1.17;1.17;;;11.50;69.00;;;;;;5001552;28;20053;-77
2023/03/05 10:28:45;;;;;;;0.60;0.60;;;11.70;69.30;;;;;;5000347;28;20018;-77
2023/03/05 10:31:36;;;;;;;3.15;2.70;;;11.60;70.20;;;;;;4994067;28;20030;-77
2023/03/05 10:34:24;;;;;;;1.17;1.17;;;11.90;70.80;;;;;;5001836;28;20586;-77
2023/03/05 10:37:04;;;;;;;3.10;1.98;;;11.50;69.20;;;;;;5005084;28;20485;-78
2023/03/05 10:39:49;;;;;;;0.85;0.85;;;11.10;73.10;;;;;;4994282;28;20044;-77
2023/03/05 10:42:23;;;;;;;2.25;2.15;;;10.80;71.80;;;;;;5001664;28;20386;-78
2023/03/05 10:44:58;;;;;;;2.63;2.28;;;10.70;75.00;;;;;;4992650;28;20129;-77
2023/03/05 10:47:47;;;;;;;2.90;2.10;;;10.50;75.10;;;;;;5011285;28;20021;-77
2023/03/05 10:50:18;;;;;;;6.70;1.45;;;10.50;74.90;;;;;;5000999;28;20046;-77
2023/03/05 10:52:50;;;;;;;2.38;2.15;;;10.60;75.10;;;;;;5006678;28;20032;-77
2023/03/05 10:55:21;;;;;;;7.28;5.97;;;10.50;75.80;;;;;;5004070;28;20030;-77
2023/03/05 10:57:47;;;;;;;3.40;2.35;;;10.60;75.60;;;;;;5003693;28;20026;-77
2023/03/05 11:00:26;;;;;;;3.50;3.17;;;10.30;76.80;;;;;;5009176;28;20038;-78
2023/03/05 11:03:02;;;;;;;3.38;2.80;;;10.40;74.40;;;;;;5002203;28;20055;-78
2023/03/05 11:05:37;;;;;;;1.03;1.03;;;10.30;72.90;;;;;;5007695;28;20084;-77
2023/03/05 11:08:24;;;;;;;3.10;2.50;;;10.10;73.70;;;;;;5008437;28;20030;-77
2023/03/05 11:11:08;;;;;;;6.25;4.00;;;10.00;75.00;;;;;;5016972;28;20680;-78
2023/03/05 11:13:37;;;;;;;1.45;1.35;;;10.30;76.80;;;;;;5006723;28;20036;-79
2023/03/05 11:16:05;;;;;;;1.85;1.75;;;10.40;75.70;;;;;;5011176;28;20030;-80
2023/03/05 11:18:36;;;;;;;1.27;0.93;;;10.10;75.00;;;;;;5005203;28;20022;-79
2023/03/05 11:21:31;;;;;;;3.20;1.55;;;10.50;76.60;;;;;;5005595;28;20040;-79
2023/03/05 11:24:12;;;;;;;1.08;1.08;;;10.50;76.90;;;;;;4980646;28;20053;-80
2023/03/05 11:26:49;;;;;;;4.95;2.70;;;10.50;76.10;;;;;;5002302;28;20146;-78
2023/03/05 11:29:19;;;;;;;1.88;1.77;;;10.50;77.10;;;;;;4999059;28;20044;-76
2023/03/05 11:31:45;;;;;;;1.02;1.02;;;10.30;74.70;;;;;;5003970;28;20111;-78
2023/03/05 11:34:16;;;;;;;2.25;2.05;;;10.40;75.00;;;;;;4996790;28;20128;-78
2023/03/05 11:36:52;;;;;;;2.35;1.85;;;10.30;74.10;;;;;;5009774;28;20066;-79
2023/03/05 11:39:21;;;;;;;2.17;2.05;;;10.50;73.60;;;;;;5002057;28;20060;-81
2023/03/05 11:41:52;;;;;;;1.45;1.30;;;10.50;75.30;;;;;;5009150;28;20025;-78
2023/03/05 11:44:28;;;;;;;2.10;1.98;;;10.50;75.80;;;;;;4985492;28;20058;-77
2023/03/05 11:47:37;;;;;;;0.80;0.80;;;10.20;75.30;;;;;;4998950;28;20058;-76
2023/03/05 11:50:15;;;;;;;1.73;1.42;;;10.40;71.80;;;;;;5005607;28;20273;-76
2023/03/05 11:52:58;;;;;;;4.53;1.58;;;10.30;76.00;;;;;;4998531;28;20026;-76
2023/03/05 11:55:35;;;;;;;2.78;2.17;;;9.70;70.30;;;;;;5002368;28;20026;-75
2023/03/05 11:58:19;;;;;;;;;;;9.80;74.70;;;;;;5007168;28;20120;-76
2023/03/05 12:00:47;;;;;;;2.70;2.38;;;9.80;71.20;;;;;;5022223;28;19921;-75
2023/03/05 12:03:16;;;;;;;1.73;1.63;;;10.00;74.20;;;;;;5023416;28;20035;-76
2023/03/05 12:05:46;;;;;;;1.02;1.02;;;9.80;71.70;;;;;;5003389;28;20587;-76
2023/03/05 12:08:18;;;;;;;8.02;2.17;;;10.10;75.40;;;;;;4989064;28;20027;-76
2023/03/05 12:10:44;;;;;;;2.47;1.88;;;9.90;73.70;;;;;;4992497;28;20103;-75
2023/03/05 12:13:25;;;;;;;2.28;1.80;;;10.00;73.30;;;;;;5010546;28;20127;-76
2023/03/05 12:16:07;;;;;;;1.88;1.77;;;9.90;73.20;;;;;;5003668;28;20026;-75
2023/03/05 12:18:44;;;;;;;3.00;1.42;;;9.90;75.00;;;;;;5007160;28;20038;-75
2023/03/05 12:21:28;;;;;;;3.05;2.58;;;10.00;75.30;;;;;;5007511;28;20029;-75
2023/03/05 12:24:00;;;;;;;2.00;1.55;;;10.00;72.90;;;;;;5003704;28;20022;-75
2023/03/05 12:27:03;;;;;;;3.78;2.67;;;9.90;72.30;;;;;;5004083;28;20665;-76
2023/03/05 12:29:29;;;;;;;2.10;1.92;;;9.80;73.70;;;;;;4983233;28;20030;-77
2023/03/05 12:31:54;;;;;;;2.88;2.72;;;9.80;71.50;;;;;;4979869;28;20057;-77
2023/03/05 12:34:38;;;;;;;8.13;2.35;;;9.70;69.70;;;;;;5002759;28;20033;-76
2023/03/05 12:37:11;;;;;;;0.95;0.95;;;9.80;72.30;;;;;;4985289;28;20102;-76
2023/03/05 12:39:48;;;;;;;1.70;1.50;;;9.70;67.70;;;;;;5002137;28;20041;-76
2023/03/05 12:42:53;;;;;;;2.25;1.55;;;9.90;69.90;;;;;;5002674;28;20104;-76
2023/03/05 12:45:29;;;;;;;3.23;2.93;;;9.80;70.30;;;;;;4999015;28;20702;-76
2023/03/05 12:47:55;;;;;;;2.10;2.00;;;9.50;66.60;;;;;;5007220;28;20280;-77
2023/03/05 12:50:27;;;;;;;1.17;1.17;;;9.40;69.00;;;;;;5011362;28;20178;-76
2023/03/05 12:53:11;;;;;;;0.90;0.90;;;9.60;70.90;;;;;;4994868;28;20033;-75
2023/03/05 12:55:44;;;;;;;1.00;1.00;;;9.60;70.90;;;;;;5008204;28;20026;-75
2023/03/05 12:58:20;;;;;;;3.85;2.60;;;9.90;73.70;;;;;;5012335;28;20029;-75
2023/03/05 13:00:48;;;;;;;3.83;2.33;;;9.90;75.40;;;;;;5000721;28;20120;-75
2023/03/05 13:03:21;;;;;;;0.98;0.98;;;9.90;72.90;;;;;;5011318;28;20180;-75
2023/03/05 13:05:56;;;;;;;1.65;1.55;;;9.90;72.70;;;;;;4993055;28;20035;-75
2023/03/05 13:08:26;;;;;;;1.85;1.75;;;9.70;68.80;;;;;;4998967;28;20041;-75